sensor_id;sensor_type;location;lat;lon;timestamp;P1;durP1;ratioP1;P2;durP2;ratioP2
7523;SDS011;3803;51.666;7.630;2022-11-20T00:00:18;17.83;;;11.10;;
7523;SDS011;3803;51.666;7.630;2022-11-20T00:00:39;18.02;;;11.00;;
7523;SDS011;3803;51.666;7.630;2022-11-20T00:01:12;17.10;;;11.38;;
7523;SDS011;3803;51.666;7.630;2022-11-20T00:01:36;18.95;;;12.20;;
7523;SDS011;3803;51.666;7.630;2022-11-20T00:01:57;18.50;;;11.45;;
7523;SDS011;3803;51.666;7.630;2022-11-20T00:02:18;18.25;;;11.10;;
7523;SDS011;3803;51.666;7.630;2022-11-20T00:02:38;17.47;;;10.73;;
7523;SDS011;3803;51.666;7.630;2022-11-20T00:02:59;18.10;;;11.10;;
7523;SDS011;3803;51.666;7.630;2022-11-20T00:03:21;17.05;;;10.90;;
7523;SDS011;3803;51.666;7.630;2022-11-20T00:03:41;15.70;;;10.82;;
7523;SDS011;3803;51.666;7.630;2022-11-20T00:04:02;15.18;;;10.90;;
7523;SDS011;3803;51.666;7.630;2022-11-20T00:04:23;15.97;;;11.17;;
7523;SDS011;3803;51.666;7.630;2022-11-20T00:04:43;17.02;;;11.48;;
7523;SDS011;3803;51.666;7.630;2022-11-20T00:05:04;17.00;;;11.32;;
7523;SDS011;3803;51.666;7.630;2022-11-20T00:05:25;17.42;;;11.40;;
7523;SDS011;3803;51.666;7.630;2022-11-20T00:05:45;15.70;;;10.97;;
7523;SDS011;3803;51.666;7.630;2022-11-20T00:06:07;15.55;;;10.65;;
7523;SDS011;3803;51.666;7.630;2022-11-20T00:06:29;14.43;;;10.40;;
7523;SDS011;3803;51.666;7.630;2022-11-20T00:06:50;15.95;;;10.55;;
7523;SDS011;3803;51.666;7.630;2022-11-20T00:07:10;17.08;;;10.55;;
7523;SDS011;3803;51.666;7.630;2022-11-20T00:07:31;16.43;;;10.63;;
7523;SDS011;3803;51.666;7.630;2022-11-20T00:07:51;15.65;;;10.60;;
7523;SDS011;3803;51.666;7.630;2022-11-20T00:08:12;14.27;;;10.43;;
7523;SDS011;3803;51.666;7.630;2022-11-20T00:08:32;14.33;;;10.73;;
7523;SDS011;3803;51.666;7.630;2022-11-20T00:08:57;15.68;;;11.30;;
7523;SDS011;3803;51.666;7.630;2022-11-20T00:09:20;15.50;;;11.00;;
7523;SDS011;3803;51.666;7.630;2022-11-20T00:09:40;15.55;;;10.90;;
7523;SDS011;3803;51.666;7.630;2022-11-20T00:10:01;14.90;;;10.50;;
7523;SDS011;3803;51.666;7.630;2022-11-20T00:10:22;16.77;;;10.30;;
7523;SDS011;3803;51.666;7.630;2022-11-20T00:10:42;17.57;;;10.53;;
7523;SDS011;3803;51.666;7.630;2022-11-20T00:11:06;17.55;;;10.63;;
7523;SDS011;3803;51.666;7.630;2022-11-20T00:11:28;17.35;;;11.13;;
7523;SDS011;3803;51.666;7.630;2022-11-20T00:11:50;16.73;;;10.65;;
7523;SDS011;3803;51.666;7.630;2022-11-20T00:12:10;16.73;;;10.68;;
7523;SDS011;3803;51.666;7.630;2022-11-20T00:12:31;17.47;;;10.67;;
7523;SDS011;3803;51.666;7.630;2022-11-20T00:12:51;18.50;;;11.23;;
7523;SDS011;3803;51.666;7.630;2022-11-20T00:13:12;17.23;;;11.18;;
7523;SDS011;3803;51.666;7.630;2022-11-20T00:13:33;15.90;;;10.70;;
7523;SDS011;3803;51.666;7.630;2022-11-20T00:13:55;14.30;;;10.23;;
7523;SDS011;3803;51.666;7.630;2022-11-20T00:14:17;15.05;;;10.18;;
7523;SDS011;3803;51.666;7.630;2022-11-20T00:14:38;13.77;;;10.05;;
7523;SDS011;3803;51.666;7.630;2022-11-20T00:14:58;15.00;;;10.15;;
7523;SDS011;3803;51.666;7.630;2022-11-20T00:15:19;14.30;;;10.20;;
7523;SDS011;3803;51.666;7.630;2022-11-20T00:15:39;15.95;;;11.05;;
7523;SDS011;3803;51.666;7.630;2022-11-20T00:16:01;17.05;;;11.30;;
7523;SDS011;3803;51.666;7.630;2022-11-20T00:16:23;18.27;;;11.40;;
7523;SDS011;3803;51.666;7.630;2022-11-20T00:16:45;18.77;;;11.13;;
7523;SDS011;3803;51.666;7.630;2022-11-20T00:17:05;17.57;;;11.23;;
7523;SDS011;3803;51.666;7.630;2022-11-20T00:17:26;17.85;;;11.18;;
7523;SDS011;3803;51.666;7.630;2022-11-20T00:17:46;15.93;;;10.70;;
7523;SDS011;3803;51.666;7.630;2022-11-20T00:18:07;17.17;;;10.50;;
7523;SDS011;3803;51.666;7.630;2022-11-20T00:18:27;16.83;;;10.50;;
7523;SDS011;3803;51.666;7.630;2022-11-20T00:18:48;16.65;;;10.48;;
7523;SDS011;3803;51.666;7.630;2022-11-20T00:19:09;16.08;;;10.50;;
7523;SDS011;3803;51.666;7.630;2022-11-20T00:19:30;15.10;;;10.40;;
7523;SDS011;3803;51.666;7.630;2022-11-20T00:19:50;17.03;;;10.67;;
7523;SDS011;3803;51.666;7.630;2022-11-20T00:20:11;18.00;;;10.63;;
7523;SDS011;3803;51.666;7.630;2022-11-20T00:20:33;18.00;;;10.68;;
7523;SDS011;3803;51.666;7.630;2022-11-20T00:20:54;15.65;;;10.10;;
7523;SDS011;3803;51.666;7.630;2022-11-20T00:21:21;16.02;;;10.20;;
7523;SDS011;3803;51.666;7.630;2022-11-20T00:21:46;15.48;;;10.52;;
7523;SDS011;3803;51.666;7.630;2022-11-20T00:22:07;14.40;;;10.53;;
7523;SDS011;3803;51.666;7.630;2022-11-20T00:22:27;14.18;;;10.65;;
7523;SDS011;3803;51.666;7.630;2022-11-20T00:22:49;16.85;;;11.32;;
7523;SDS011;3803;51.666;7.630;2022-11-20T00:23:10;17.40;;;11.20;;
7523;SDS011;3803;51.666;7.630;2022-11-20T00:23:31;17.17;;;11.20;;
7523;SDS011;3803;51.666;7.630;2022-11-20T00:23:52;16.45;;;11.10;;
7523;SDS011;3803;51.666;7.630;2022-11-20T00:24:14;15.50;;;10.98;;
7523;SDS011;3803;51.666;7.630;2022-11-20T00:24:35;15.18;;;10.73;;
7523;SDS011;3803;51.666;7.630;2022-11-20T00:24:56;16.13;;;10.30;;
7523;SDS011;3803;51.666;7.630;2022-11-20T00:25:18;16.58;;;10.50;;
7523;SDS011;3803;51.666;7.630;2022-11-20T00:25:38;16.75;;;10.88;;
7523;SDS011;3803;51.666;7.630;2022-11-20T00:26:05;14.98;;;10.85;;
7523;SDS011;3803;51.666;7.630;2022-11-20T00:26:27;15.60;;;11.18;;
7523;SDS011;3803;51.666;7.630;2022-11-20T00:26:49;16.30;;;11.55;;
7523;SDS011;3803;51.666;7.630;2022-11-20T00:27:09;17.05;;;11.73;;
7523;SDS011;3803;51.666;7.630;2022-11-20T00:27:30;17.50;;;11.80;;
7523;SDS011;3803;51.666;7.630;2022-11-20T00:27:51;17.80;;;11.90;;
7523;SDS011;3803;51.666;7.630;2022-11-20T00:28:11;15.73;;;11.00;;
7523;SDS011;3803;51.666;7.630;2022-11-20T00:28:32;14.47;;;10.77;;
7523;SDS011;3803;51.666;7.630;2022-11-20T00:28:53;14.13;;;10.40;;
7523;SDS011;3803;51.666;7.630;2022-11-20T00:29:15;15.82;;;11.00;;
7523;SDS011;3803;51.666;7.630;2022-11-20T00:29:36;16.08;;;10.80;;
7523;SDS011;3803;51.666;7.630;2022-11-20T00:29:56;16.27;;;10.68;;
7523;SDS011;3803;51.666;7.630;2022-11-20T00:30:17;15.27;;;10.17;;
7523;SDS011;3803;51.666;7.630;2022-11-20T00:30:38;15.07;;;10.27;;
7523;SDS011;3803;51.666;7.630;2022-11-20T00:31:22;16.50;;;11.40;;
7523;SDS011;3803;51.666;7.630;2022-11-20T00:31:43;17.00;;;11.55;;
7523;SDS011;3803;51.666;7.630;2022-11-20T00:32:04;18.65;;;12.10;;
7523;SDS011;3803;51.666;7.630;2022-11-20T00:32:24;18.93;;;12.23;;
7523;SDS011;3803;51.666;7.630;2022-11-20T00:32:45;19.50;;;12.50;;
7523;SDS011;3803;51.666;7.630;2022-11-20T00:33:05;18.33;;;12.23;;
7523;SDS011;3803;51.666;7.630;2022-11-20T00:33:26;18.83;;;12.57;;
7523;SDS011;3803;51.666;7.630;2022-11-20T00:33:48;18.73;;;12.25;;
7523;SDS011;3803;51.666;7.630;2022-11-20T00:34:09;18.73;;;12.10;;
7523;SDS011;3803;51.666;7.630;2022-11-20T00:34:30;17.60;;;11.57;;
7523;SDS011;3803;51.666;7.630;2022-11-20T00:34:50;17.57;;;12.20;;
7523;SDS011;3803;51.666;7.630;2022-11-20T00:35:11;19.48;;;12.85;;
7523;SDS011;3803;51.666;7.630;2022-11-20T00:35:32;18.85;;;12.80;;
7523;SDS011;3803;51.666;7.630;2022-11-20T00:35:52;18.95;;;12.30;;
7523;SDS011;3803;51.666;7.630;2022-11-20T00:36:16;16.50;;;11.40;;
7523;SDS011;3803;51.666;7.630;2022-11-20T00:36:38;17.08;;;11.52;;
7523;SDS011;3803;51.666;7.630;2022-11-20T00:36:58;17.08;;;12.00;;
7523;SDS011;3803;51.666;7.630;2022-11-20T00:37:19;18.30;;;12.50;;
7523;SDS011;3803;51.666;7.630;2022-11-20T00:37:39;17.57;;;12.30;;
7523;SDS011;3803;51.666;7.630;2022-11-20T00:38:00;17.58;;;12.05;;
7523;SDS011;3803;51.666;7.630;2022-11-20T00:38:21;17.45;;;12.40;;
7523;SDS011;3803;51.666;7.630;2022-11-20T00:38:41;17.20;;;12.03;;
7523;SDS011;3803;51.666;7.630;2022-11-20T00:39:02;17.35;;;11.90;;
7523;SDS011;3803;51.666;7.630;2022-11-20T00:39:23;17.83;;;11.97;;
7523;SDS011;3803;51.666;7.630;2022-11-20T00:39:43;17.95;;;12.15;;
7523;SDS011;3803;51.666;7.630;2022-11-20T00:40:04;18.83;;;12.65;;
7523;SDS011;3803;51.666;7.630;2022-11-20T00:40:25;18.20;;;12.55;;
7523;SDS011;3803;51.666;7.630;2022-11-20T00:40:46;18.35;;;13.32;;
7523;SDS011;3803;51.666;7.630;2022-11-20T00:41:13;19.23;;;13.23;;
7523;SDS011;3803;51.666;7.630;2022-11-20T00:41:35;18.77;;;12.73;;
7523;SDS011;3803;51.666;7.630;2022-11-20T00:41:56;19.10;;;12.23;;
7523;SDS011;3803;51.666;7.630;2022-11-20T00:42:16;18.67;;;12.25;;
7523;SDS011;3803;51.666;7.630;2022-11-20T00:42:37;20.37;;;11.80;;
7523;SDS011;3803;51.666;7.630;2022-11-20T00:42:57;19.17;;;11.80;;
7523;SDS011;3803;51.666;7.630;2022-11-20T00:43:18;18.75;;;11.75;;
7523;SDS011;3803;51.666;7.630;2022-11-20T00:43:39;18.55;;;12.48;;
7523;SDS011;3803;51.666;7.630;2022-11-20T00:44:00;19.45;;;12.30;;
7523;SDS011;3803;51.666;7.630;2022-11-20T00:44:20;19.07;;;12.37;;
7523;SDS011;3803;51.666;7.630;2022-11-20T00:44:41;17.73;;;11.83;;
7523;SDS011;3803;51.666;7.630;2022-11-20T00:45:01;16.23;;;11.30;;
7523;SDS011;3803;51.666;7.630;2022-11-20T00:45:22;14.68;;;10.50;;
7523;SDS011;3803;51.666;7.630;2022-11-20T00:45:43;15.30;;;10.73;;
7523;SDS011;3803;51.666;7.630;2022-11-20T00:46:10;16.00;;;11.25;;
7523;SDS011;3803;51.666;7.630;2022-11-20T00:46:33;16.27;;;11.40;;
7523;SDS011;3803;51.666;7.630;2022-11-20T00:46:54;15.13;;;11.07;;
7523;SDS011;3803;51.666;7.630;2022-11-20T00:47:15;16.45;;;11.23;;
7523;SDS011;3803;51.666;7.630;2022-11-20T00:47:35;17.75;;;11.50;;
7523;SDS011;3803;51.666;7.630;2022-11-20T00:47:56;18.00;;;11.30;;
7523;SDS011;3803;51.666;7.630;2022-11-20T00:48:17;17.10;;;10.82;;
7523;SDS011;3803;51.666;7.630;2022-11-20T00:48:37;16.38;;;10.73;;
7523;SDS011;3803;51.666;7.630;2022-11-20T00:48:58;16.23;;;11.10;;
7523;SDS011;3803;51.666;7.630;2022-11-20T00:49:18;16.05;;;11.43;;
7523;SDS011;3803;51.666;7.630;2022-11-20T00:49:39;17.35;;;11.93;;
7523;SDS011;3803;51.666;7.630;2022-11-20T00:49:59;17.10;;;11.80;;
7523;SDS011;3803;51.666;7.630;2022-11-20T00:50:20;17.80;;;12.03;;
7523;SDS011;3803;51.666;7.630;2022-11-20T00:50:41;19.25;;;11.73;;
7523;SDS011;3803;51.666;7.630;2022-11-20T00:51:02;22.10;;;11.82;;
7523;SDS011;3803;51.666;7.630;2022-11-20T00:51:24;21.20;;;11.77;;
7523;SDS011;3803;51.666;7.630;2022-11-20T00:51:46;18.17;;;11.50;;
7523;SDS011;3803;51.666;7.630;2022-11-20T00:52:07;18.58;;;12.02;;
7523;SDS011;3803;51.666;7.630;2022-11-20T00:52:27;18.23;;;11.70;;
7523;SDS011;3803;51.666;7.630;2022-11-20T00:52:48;16.55;;;11.40;;
7523;SDS011;3803;51.666;7.630;2022-11-20T00:53:08;14.82;;;10.93;;
7523;SDS011;3803;51.666;7.630;2022-11-20T00:53:29;14.10;;;11.00;;
7523;SDS011;3803;51.666;7.630;2022-11-20T00:53:50;14.88;;;11.60;;
7523;SDS011;3803;51.666;7.630;2022-11-20T00:54:10;15.13;;;11.50;;
7523;SDS011;3803;51.666;7.630;2022-11-20T00:54:31;16.63;;;11.30;;
7523;SDS011;3803;51.666;7.630;2022-11-20T00:54:51;17.85;;;11.45;;
7523;SDS011;3803;51.666;7.630;2022-11-20T00:55:12;19.45;;;11.70;;
7523;SDS011;3803;51.666;7.630;2022-11-20T00:55:32;19.30;;;12.10;;
7523;SDS011;3803;51.666;7.630;2022-11-20T00:56:19;15.38;;;10.77;;
7523;SDS011;3803;51.666;7.630;2022-11-20T00:56:39;14.25;;;10.30;;
7523;SDS011;3803;51.666;7.630;2022-11-20T00:57:00;15.00;;;10.88;;
7523;SDS011;3803;51.666;7.630;2022-11-20T00:57:21;15.43;;;11.10;;
7523;SDS011;3803;51.666;7.630;2022-11-20T00:57:41;16.35;;;11.30;;
7523;SDS011;3803;51.666;7.630;2022-11-20T00:58:02;16.95;;;11.30;;
7523;SDS011;3803;51.666;7.630;2022-11-20T00:58:28;16.33;;;11.15;;
7523;SDS011;3803;51.666;7.630;2022-11-20T00:58:50;15.60;;;11.18;;
7523;SDS011;3803;51.666;7.630;2022-11-20T00:59:13;15.40;;;10.70;;
7523;SDS011;3803;51.666;7.630;2022-11-20T00:59:33;15.50;;;10.35;;
7523;SDS011;3803;51.666;7.630;2022-11-20T00:59:54;15.80;;;10.53;;
7523;SDS011;3803;51.666;7.630;2022-11-20T01:00:15;16.83;;;11.07;;
7523;SDS011;3803;51.666;7.630;2022-11-20T01:00:36;17.30;;;11.27;;
7523;SDS011;3803;51.666;7.630;2022-11-20T01:01:03;17.10;;;11.20;;
7523;SDS011;3803;51.666;7.630;2022-11-20T01:01:25;17.02;;;11.02;;
7523;SDS011;3803;51.666;7.630;2022-11-20T01:01:47;17.15;;;11.00;;
7523;SDS011;3803;51.666;7.630;2022-11-20T01:02:07;15.97;;;10.50;;
7523;SDS011;3803;51.666;7.630;2022-11-20T01:02:28;15.13;;;10.35;;
7523;SDS011;3803;51.666;7.630;2022-11-20T01:02:48;14.77;;;10.43;;
7523;SDS011;3803;51.666;7.630;2022-11-20T01:03:09;15.77;;;11.00;;
7523;SDS011;3803;51.666;7.630;2022-11-20T01:03:33;15.80;;;11.20;;
7523;SDS011;3803;51.666;7.630;2022-11-20T01:03:55;15.48;;;10.90;;
7523;SDS011;3803;51.666;7.630;2022-11-20T01:04:18;16.98;;;10.90;;
7523;SDS011;3803;51.666;7.630;2022-11-20T01:04:38;17.63;;;11.13;;
7523;SDS011;3803;51.666;7.630;2022-11-20T01:04:59;17.93;;;11.20;;
7523;SDS011;3803;51.666;7.630;2022-11-20T01:05:19;18.77;;;11.98;;
7523;SDS011;3803;51.666;7.630;2022-11-20T01:05:40;18.37;;;11.80;;
7523;SDS011;3803;51.666;7.630;2022-11-20T01:06:01;17.67;;;11.43;;
7523;SDS011;3803;51.666;7.630;2022-11-20T01:06:45;16.10;;;10.98;;
7523;SDS011;3803;51.666;7.630;2022-11-20T01:07:06;16.30;;;11.07;;
7523;SDS011;3803;51.666;7.630;2022-11-20T01:07:26;17.50;;;11.37;;
7523;SDS011;3803;51.666;7.630;2022-11-20T01:07:47;17.95;;;11.10;;
7523;SDS011;3803;51.666;7.630;2022-11-20T01:08:07;19.83;;;11.10;;
7523;SDS011;3803;51.666;7.630;2022-11-20T01:08:29;17.97;;;11.00;;
7523;SDS011;3803;51.666;7.630;2022-11-20T01:08:55;13.45;;;10.82;;
7523;SDS011;3803;51.666;7.630;2022-11-20T01:09:17;13.80;;;10.70;;
7523;SDS011;3803;51.666;7.630;2022-11-20T01:09:37;13.67;;;10.17;;
7523;SDS011;3803;51.666;7.630;2022-11-20T01:09:58;15.80;;;10.23;;
7523;SDS011;3803;51.666;7.630;2022-11-20T01:10:19;16.80;;;10.60;;
7523;SDS011;3803;51.666;7.630;2022-11-20T01:10:39;17.33;;;11.20;;
7523;SDS011;3803;51.666;7.630;2022-11-20T01:11:01;16.50;;;11.07;;
7523;SDS011;3803;51.666;7.630;2022-11-20T01:11:24;16.35;;;11.00;;
7523;SDS011;3803;51.666;7.630;2022-11-20T01:11:46;17.58;;;11.50;;
7523;SDS011;3803;51.666;7.630;2022-11-20T01:12:07;18.87;;;11.70;;
7523;SDS011;3803;51.666;7.630;2022-11-20T01:12:27;19.05;;;11.90;;
7523;SDS011;3803;51.666;7.630;2022-11-20T01:12:48;17.95;;;11.25;;
7523;SDS011;3803;51.666;7.630;2022-11-20T01:13:29;16.52;;;11.25;;
7523;SDS011;3803;51.666;7.630;2022-11-20T01:13:59;16.27;;;11.40;;
7523;SDS011;3803;51.666;7.630;2022-11-20T01:14:21;16.15;;;11.15;;
7523;SDS011;3803;51.666;7.630;2022-11-20T01:14:42;16.13;;;11.10;;
7523;SDS011;3803;51.666;7.630;2022-11-20T01:15:03;19.50;;;11.17;;
7523;SDS011;3803;51.666;7.630;2022-11-20T01:15:23;19.30;;;11.27;;
7523;SDS011;3803;51.666;7.630;2022-11-20T01:15:44;18.30;;;11.45;;
7523;SDS011;3803;51.666;7.630;2022-11-20T01:16:14;15.45;;;11.15;;
7523;SDS011;3803;51.666;7.630;2022-11-20T01:16:37;17.42;;;11.55;;
7523;SDS011;3803;51.666;7.630;2022-11-20T01:16:59;18.00;;;11.50;;
7523;SDS011;3803;51.666;7.630;2022-11-20T01:17:20;18.00;;;11.10;;
7523;SDS011;3803;51.666;7.630;2022-11-20T01:17:41;17.17;;;11.40;;
7523;SDS011;3803;51.666;7.630;2022-11-20T01:18:01;15.70;;;11.02;;
7523;SDS011;3803;51.666;7.630;2022-11-20T01:18:22;15.70;;;11.10;;
7523;SDS011;3803;51.666;7.630;2022-11-20T01:18:43;16.20;;;11.07;;
7523;SDS011;3803;51.666;7.630;2022-11-20T01:19:09;17.85;;;11.60;;
7523;SDS011;3803;51.666;7.630;2022-11-20T01:19:32;16.63;;;11.45;;
7523;SDS011;3803;51.666;7.630;2022-11-20T01:19:53;15.57;;;11.03;;
7523;SDS011;3803;51.666;7.630;2022-11-20T01:20:13;14.40;;;10.80;;
7523;SDS011;3803;51.666;7.630;2022-11-20T01:20:34;14.98;;;10.98;;
7523;SDS011;3803;51.666;7.630;2022-11-20T01:20:59;15.88;;;11.43;;
7523;SDS011;3803;51.666;7.630;2022-11-20T01:21:24;16.58;;;11.68;;
7523;SDS011;3803;51.666;7.630;2022-11-20T01:21:49;15.95;;;11.30;;
7523;SDS011;3803;51.666;7.630;2022-11-20T01:22:11;15.20;;;10.70;;
7523;SDS011;3803;51.666;7.630;2022-11-20T01:22:32;15.63;;;10.80;;
7523;SDS011;3803;51.666;7.630;2022-11-20T01:22:52;17.05;;;11.27;;
7523;SDS011;3803;51.666;7.630;2022-11-20T01:23:13;18.40;;;11.67;;
7523;SDS011;3803;51.666;7.630;2022-11-20T01:23:34;17.97;;;11.67;;
7523;SDS011;3803;51.666;7.630;2022-11-20T01:23:56;16.73;;;11.27;;
7523;SDS011;3803;51.666;7.630;2022-11-20T01:24:18;15.85;;;11.10;;
7523;SDS011;3803;51.666;7.630;2022-11-20T01:24:39;16.40;;;11.38;;
7523;SDS011;3803;51.666;7.630;2022-11-20T01:25:00;16.00;;;11.40;;
7523;SDS011;3803;51.666;7.630;2022-11-20T01:25:20;16.67;;;11.40;;
7523;SDS011;3803;51.666;7.630;2022-11-20T01:25:41;17.90;;;11.87;;
7523;SDS011;3803;51.666;7.630;2022-11-20T01:26:02;19.80;;;12.60;;
7523;SDS011;3803;51.666;7.630;2022-11-20T01:26:26;18.55;;;12.30;;
7523;SDS011;3803;51.666;7.630;2022-11-20T01:26:49;19.40;;;12.20;;
7523;SDS011;3803;51.666;7.630;2022-11-20T01:27:10;18.30;;;11.50;;
7523;SDS011;3803;51.666;7.630;2022-11-20T01:27:31;18.35;;;11.27;;
7523;SDS011;3803;51.666;7.630;2022-11-20T01:27:51;18.73;;;11.57;;
7523;SDS011;3803;51.666;7.630;2022-11-20T01:28:12;19.90;;;11.97;;
7523;SDS011;3803;51.666;7.630;2022-11-20T01:28:33;19.83;;;12.60;;
7523;SDS011;3803;51.666;7.630;2022-11-20T01:28:54;18.60;;;12.55;;
7523;SDS011;3803;51.666;7.630;2022-11-20T01:29:17;17.90;;;12.60;;
7523;SDS011;3803;51.666;7.630;2022-11-20T01:29:44;18.23;;;12.40;;
7523;SDS011;3803;51.666;7.630;2022-11-20T01:30:05;18.77;;;12.48;;
7523;SDS011;3803;51.666;7.630;2022-11-20T01:30:26;20.45;;;12.48;;
7523;SDS011;3803;51.666;7.630;2022-11-20T01:30:47;20.10;;;12.48;;
7523;SDS011;3803;51.666;7.630;2022-11-20T01:31:14;19.53;;;12.07;;
7523;SDS011;3803;51.666;7.630;2022-11-20T01:31:36;18.17;;;11.38;;
7523;SDS011;3803;51.666;7.630;2022-11-20T01:31:57;18.35;;;11.55;;
7523;SDS011;3803;51.666;7.630;2022-11-20T01:32:18;17.53;;;12.00;;
7523;SDS011;3803;51.666;7.630;2022-11-20T01:32:38;20.73;;;12.37;;
7523;SDS011;3803;51.666;7.630;2022-11-20T01:32:59;21.55;;;12.60;;
7523;SDS011;3803;51.666;7.630;2022-11-20T01:33:19;21.70;;;12.40;;
7523;SDS011;3803;51.666;7.630;2022-11-20T01:33:40;19.48;;;12.38;;
7523;SDS011;3803;51.666;7.630;2022-11-20T01:34:06;19.40;;;12.80;;
7523;SDS011;3803;51.666;7.630;2022-11-20T01:34:30;19.52;;;13.30;;
7523;SDS011;3803;51.666;7.630;2022-11-20T01:34:50;20.80;;;13.48;;
7523;SDS011;3803;51.666;7.630;2022-11-20T01:35:11;20.67;;;13.07;;
7523;SDS011;3803;51.666;7.630;2022-11-20T01:35:31;19.52;;;12.35;;
7523;SDS011;3803;51.666;7.630;2022-11-20T01:35:52;17.40;;;11.50;;
7523;SDS011;3803;51.666;7.630;2022-11-20T01:36:14;16.95;;;11.38;;
7523;SDS011;3803;51.666;7.630;2022-11-20T01:36:36;17.58;;;12.05;;
7523;SDS011;3803;51.666;7.630;2022-11-20T01:36:57;18.58;;;12.40;;
7523;SDS011;3803;51.666;7.630;2022-11-20T01:37:18;18.88;;;13.10;;
7523;SDS011;3803;51.666;7.630;2022-11-20T01:37:38;19.65;;;13.00;;
7523;SDS011;3803;51.666;7.630;2022-11-20T01:37:59;19.97;;;13.30;;
7523;SDS011;3803;51.666;7.630;2022-11-20T01:38:19;19.25;;;13.10;;
7523;SDS011;3803;51.666;7.630;2022-11-20T01:38:40;17.75;;;12.90;;
7523;SDS011;3803;51.666;7.630;2022-11-20T01:39:03;17.88;;;12.60;;
7523;SDS011;3803;51.666;7.630;2022-11-20T01:39:30;20.38;;;12.07;;
7523;SDS011;3803;51.666;7.630;2022-11-20T01:39:50;21.50;;;12.20;;
7523;SDS011;3803;51.666;7.630;2022-11-20T01:40:11;22.20;;;12.37;;
7523;SDS011;3803;51.666;7.630;2022-11-20T01:40:32;21.17;;;12.05;;
7523;SDS011;3803;51.666;7.630;2022-11-20T01:40:55;20.13;;;11.95;;
7523;SDS011;3803;51.666;7.630;2022-11-20T01:41:16;20.20;;;12.05;;
7523;SDS011;3803;51.666;7.630;2022-11-20T01:41:55;19.50;;;12.10;;
7523;SDS011;3803;51.666;7.630;2022-11-20T01:42:34;16.27;;;11.30;;
7523;SDS011;3803;51.666;7.630;2022-11-20T01:43:16;16.65;;;12.00;;
7523;SDS011;3803;51.666;7.630;2022-11-20T01:43:41;17.02;;;12.23;;
7523;SDS011;3803;51.666;7.630;2022-11-20T01:44:02;17.53;;;12.10;;
7523;SDS011;3803;51.666;7.630;2022-11-20T01:46:16;17.35;;;11.52;;
7523;SDS011;3803;51.666;7.630;2022-11-20T01:46:38;18.05;;;11.50;;
7523;SDS011;3803;51.666;7.630;2022-11-20T01:47:02;19.02;;;11.60;;
7523;SDS011;3803;51.666;7.630;2022-11-20T01:47:31;19.45;;;11.60;;
7523;SDS011;3803;51.666;7.630;2022-11-20T01:48:05;19.35;;;11.77;;
7523;SDS011;3803;51.666;7.630;2022-11-20T01:48:33;19.40;;;11.90;;
7523;SDS011;3803;51.666;7.630;2022-11-20T01:49:00;17.42;;;11.50;;
7523;SDS011;3803;51.666;7.630;2022-11-20T01:49:26;16.20;;;11.20;;
7523;SDS011;3803;51.666;7.630;2022-11-20T01:49:52;16.76;;;11.70;;
7523;SDS011;3803;51.666;7.630;2022-11-20T01:50:18;16.58;;;11.90;;
7523;SDS011;3803;51.666;7.630;2022-11-20T01:50:49;18.15;;;12.10;;
7523;SDS011;3803;51.666;7.630;2022-11-20T01:51:33;18.33;;;11.88;;
7523;SDS011;3803;51.666;7.630;2022-11-20T01:52:12;16.15;;;11.65;;
7523;SDS011;3803;51.666;7.630;2022-11-20T01:52:37;16.50;;;11.63;;
7523;SDS011;3803;51.666;7.630;2022-11-20T01:53:04;16.42;;;11.15;;
7523;SDS011;3803;51.666;7.630;2022-11-20T01:53:31;17.52;;;11.43;;
7523;SDS011;3803;51.666;7.630;2022-11-20T01:53:55;17.90;;;12.13;;
7523;SDS011;3803;51.666;7.630;2022-11-20T01:54:25;19.10;;;12.88;;
7523;SDS011;3803;51.666;7.630;2022-11-20T01:54:53;19.10;;;12.60;;
7523;SDS011;3803;51.666;7.630;2022-11-20T01:55:20;16.92;;;11.65;;
7523;SDS011;3803;51.666;7.630;2022-11-20T01:55:44;15.98;;;11.70;;
7523;SDS011;3803;51.666;7.630;2022-11-20T01:56:09;16.85;;;11.95;;
7523;SDS011;3803;51.666;7.630;2022-11-20T01:56:34;18.08;;;12.18;;
7523;SDS011;3803;51.666;7.630;2022-11-20T01:56:58;18.75;;;12.57;;
7523;SDS011;3803;51.666;7.630;2022-11-20T01:57:20;16.95;;;11.73;;
7523;SDS011;3803;51.666;7.630;2022-11-20T01:57:43;15.98;;;11.93;;
7523;SDS011;3803;51.666;7.630;2022-11-20T01:58:05;15.88;;;11.40;;
7523;SDS011;3803;51.666;7.630;2022-11-20T01:58:31;16.92;;;11.60;;
7523;SDS011;3803;51.666;7.630;2022-11-20T01:58:56;16.90;;;11.63;;
7523;SDS011;3803;51.666;7.630;2022-11-20T01:59:21;17.60;;;12.90;;
7523;SDS011;3803;51.666;7.630;2022-11-20T01:59:44;18.50;;;12.90;;
7523;SDS011;3803;51.666;7.630;2022-11-20T02:00:14;18.05;;;12.00;;
7523;SDS011;3803;51.666;7.630;2022-11-20T02:00:37;17.30;;;11.88;;
7523;SDS011;3803;51.666;7.630;2022-11-20T02:00:58;17.77;;;12.20;;
7523;SDS011;3803;51.666;7.630;2022-11-20T02:01:20;17.33;;;12.40;;
7523;SDS011;3803;51.666;7.630;2022-11-20T02:01:41;17.40;;;12.40;;
7523;SDS011;3803;51.666;7.630;2022-11-20T02:02:01;17.00;;;11.90;;
7523;SDS011;3803;51.666;7.630;2022-11-20T02:02:22;17.03;;;11.83;;
7523;SDS011;3803;51.666;7.630;2022-11-20T02:02:44;16.10;;;11.32;;
7523;SDS011;3803;51.666;7.630;2022-11-20T02:03:11;16.10;;;11.50;;
7523;SDS011;3803;51.666;7.630;2022-11-20T02:03:34;15.48;;;11.50;;
7523;SDS011;3803;51.666;7.630;2022-11-20T02:03:55;15.95;;;11.75;;
7523;SDS011;3803;51.666;7.630;2022-11-20T02:04:16;15.48;;;11.55;;
7523;SDS011;3803;51.666;7.630;2022-11-20T02:04:37;16.95;;;12.02;;
7523;SDS011;3803;51.666;7.630;2022-11-20T02:05:00;18.05;;;12.20;;
7523;SDS011;3803;51.666;7.630;2022-11-20T02:05:41;16.98;;;11.80;;
7523;SDS011;3803;51.666;7.630;2022-11-20T02:06:46;16.83;;;11.52;;
7523;SDS011;3803;51.666;7.630;2022-11-20T02:07:09;18.65;;;11.90;;
7523;SDS011;3803;51.666;7.630;2022-11-20T02:07:31;18.52;;;11.90;;
7523;SDS011;3803;51.666;7.630;2022-11-20T02:07:51;18.40;;;11.70;;
7523;SDS011;3803;51.666;7.630;2022-11-20T02:08:14;17.77;;;12.32;;
7523;SDS011;3803;51.666;7.630;2022-11-20T02:08:36;18.35;;;12.70;;
7523;SDS011;3803;51.666;7.630;2022-11-20T02:08:57;19.13;;;13.00;;
7523;SDS011;3803;51.666;7.630;2022-11-20T02:09:18;19.38;;;12.65;;
7523;SDS011;3803;51.666;7.630;2022-11-20T02:09:38;17.83;;;12.27;;
7523;SDS011;3803;51.666;7.630;2022-11-20T02:09:59;17.70;;;12.30;;
7523;SDS011;3803;51.666;7.630;2022-11-20T02:10:20;17.10;;;12.30;;
7523;SDS011;3803;51.666;7.630;2022-11-20T02:10:41;18.35;;;12.25;;
7523;SDS011;3803;51.666;7.630;2022-11-20T02:11:01;19.07;;;12.20;;
7523;SDS011;3803;51.666;7.630;2022-11-20T02:11:22;18.98;;;12.23;;
7523;SDS011;3803;51.666;7.630;2022-11-20T02:11:43;18.70;;;11.93;;
7523;SDS011;3803;51.666;7.630;2022-11-20T02:12:04;17.88;;;11.75;;
7523;SDS011;3803;51.666;7.630;2022-11-20T02:12:25;17.90;;;11.32;;
7523;SDS011;3803;51.666;7.630;2022-11-20T02:13:04;17.33;;;11.30;;
7523;SDS011;3803;51.666;7.630;2022-11-20T02:13:44;17.10;;;11.57;;
7523;SDS011;3803;51.666;7.630;2022-11-20T02:14:05;16.92;;;11.52;;
7523;SDS011;3803;51.666;7.630;2022-11-20T02:14:26;16.98;;;11.68;;
7523;SDS011;3803;51.666;7.630;2022-11-20T02:14:48;16.83;;;11.23;;
7523;SDS011;3803;51.666;7.630;2022-11-20T02:15:08;16.08;;;10.85;;
7523;SDS011;3803;51.666;7.630;2022-11-20T02:15:29;16.08;;;10.93;;
7523;SDS011;3803;51.666;7.630;2022-11-20T02:15:50;15.20;;;10.77;;
7523;SDS011;3803;51.666;7.630;2022-11-20T02:16:12;15.27;;;11.02;;
7523;SDS011;3803;51.666;7.630;2022-11-20T02:16:39;15.18;;;11.18;;
7523;SDS011;3803;51.666;7.630;2022-11-20T02:17:04;16.02;;;11.05;;
7523;SDS011;3803;51.666;7.630;2022-11-20T02:17:24;15.53;;;11.00;;
7523;SDS011;3803;51.666;7.630;2022-11-20T02:17:45;15.35;;;11.20;;
7523;SDS011;3803;51.666;7.630;2022-11-20T02:18:06;14.82;;;11.40;;
7523;SDS011;3803;51.666;7.630;2022-11-20T02:18:28;14.82;;;11.27;;